KLEB/LEB METAR and TAF weather

Enter ICAO airport designator
Station Type Date Time Source
KLEB METAR 2022/06/27 17:53 UTC NOAA

KLEB 271753Z 25007KT 10SM CLR 27/16 A2986 RMK AO2 SLP099 60017 T02720161 10278 20194 50001


Station Type Date Time Source
KLEB Decoded METAR 2022/06/27 17:53 UTC NOAA

LEBANON MUNICIPAL AIRPORT, NH, United States (KLEB) 43-38N 072-18W 171M
Jun 27, 2022 - 01:53 PM EDT / 2022.06.27 1753 UTC
Wind: from the WSW (250 degrees) at 8 MPH (7 KT):0
Visibility: 10 mile(s):0
Sky conditions: clear
Temperature: 81.0 F (27.2 C)
Dew Point: 61.0 F (16.1 C)
Relative Humidity: 50%
Pressure (altimeter): 29.86 in. Hg (1011 hPa)
Pressure tendency: 0.00 inches (0.1 hPa) higher than three hours ago
ob: KLEB 271753Z 25007KT 10SM CLR 27/16 A2986 RMK AO2 SLP099 60017 T02720161 10278 20194 50001
cycle: 18

Station Type Date Time Source
KLEB TAF 2022/06/27 18:22 UTC NOAA

TAF KLEB 271720Z 2718/2818 21007KT P6SM SCT006 BKN035 BKN060
FM271900 27008G15KT P6SM BKN250
FM272200 28005KT P6SM BKN250
FM280700 00000KT P6SM BKN100
FM280800 34002KT P6SM OVC050

Example: see airport list